Welcome to Des Moines Iowa Weather. I am an independent private personal weather station on the Northwest Side of Des Moines, Iowa. Just East of Windsor Heights and just West of Glendale . This site is also mobile friendly.

There are no active watches, warnings or advisories


Visit our other weather sites:

Historical Data

Weather Station Setup



Weather Underground History page Text

Daily Summary for March 2, 2018 Units:  Both    English   Metric
« Previous Day
Next Day »
Daily Weekly Monthly Yearly Custom
  High: Low: Average:
Temperature: 50.2 °F /  10.1 °C 23.0 °F /  -5 °C 36.8 °F /  2.7 °C
Dew Point: 28.5 °F /  -1.9 °C 20.0 °F /  -6.7 °C 23.7 °F /  -4.6 °C
Humidity: 93 % 32 % 64 %
Wind Speed: 9.0 mph /  14.5 km/h - 1.9 mph /  3.1 km/h
Wind Gust: 22.0 mph /  35.4 km/h - -
Wind:- - SSE
Pressure: 30.46 in /  1031.4 hPa 30.26 in /  1024.6 hPa -
Precipitation: 0.00 in /  0 mm    
Historical Graphs
 
 
Tabular Data for March 2, 2018
Time Temperature Dew Point Pressure Wind Wind Speed Wind Gust Humidity Rainfall Rate (Hourly)
00:00 27.5 °F /  -2.5 °C 23.0 °F /  -5 °C 30.38 in /  1028.7 hPa Calm     83 % 0.00 in /  0 mm
00:05 27.5 °F /  -2.5 °C 23.0 °F /  -5 °C 30.38 in /  1028.7 hPa Calm     83 % 0.00 in /  0 mm
00:06 27.0 °F /  -2.8 °C 23.0 °F /  -5 °C 30.39 in /  1029 hPa Calm     84 % 0.00 in /  0 mm
00:10 27.5 °F /  -2.5 °C 23.0 °F /  -5 °C 30.38 in /  1028.7 hPa Calm     83 % 0.00 in /  0 mm
00:15 27.1 °F /  -2.7 °C 22.6 °F /  -5.2 °C 30.39 in /  1029 hPa Calm     83 % 0.00 in /  0 mm
00:20 26.7 °F /  -2.9 °C 23.0 °F /  -5 °C 30.40 in /  1029.3 hPa Calm     85 % 0.00 in /  0 mm
00:25 27.1 °F /  -2.7 °C 22.6 °F /  -5.2 °C 30.39 in /  1029 hPa Calm     83 % 0.00 in /  0 mm
00:30 26.8 °F /  -2.9 °C 22.9 °F /  -5.1 °C 30.40 in /  1029.3 hPa Calm     85 % 0.00 in /  0 mm
00:35 26.8 °F /  -2.9 °C 22.9 °F /  -5.1 °C 30.40 in /  1029.3 hPa Calm     85 % 0.00 in /  0 mm
00:36 26.3 °F /  -3.2 °C 22.0 °F /  -5.6 °C 30.40 in /  1029.3 hPa Calm     85 % 0.00 in /  0 mm
00:40 26.8 °F /  -2.9 °C 22.9 °F /  -5.1 °C 30.40 in /  1029.3 hPa Calm     85 % 0.00 in /  0 mm
00:45 26.5 °F /  -3.1 °C 22.6 °F /  -5.2 °C 30.40 in /  1029.3 hPa Calm     85 % 0.00 in /  0 mm
00:50 26.5 °F /  -3.1 °C 22.6 °F /  -5.2 °C 30.40 in /  1029.3 hPa Calm     85 % 0.00 in /  0 mm
00:51 26.0 °F /  -3.3 °C 22.0 °F /  -5.6 °C 30.40 in /  1029.3 hPa Calm     86 % 0.00 in /  0 mm
00:55 26.5 °F /  -3.1 °C 22.6 °F /  -5.2 °C 30.40 in /  1029.3 hPa Calm     85 % 0.00 in /  0 mm
01:00 26.1 °F /  -3.3 °C 22.5 °F /  -5.3 °C 30.40 in /  1029.3 hPa Calm     86 % 0.00 in /  0 mm
01:05 26.1 °F /  -3.3 °C 22.5 °F /  -5.3 °C 30.40 in /  1029.3 hPa Calm     86 % 0.00 in /  0 mm
01:06 25.7 °F /  -3.5 °C 22.0 °F /  -5.6 °C 30.41 in /  1029.7 hPa Calm     86 % 0.00 in /  0 mm
01:10 26.1 °F /  -3.3 °C 22.5 °F /  -5.3 °C 30.40 in /  1029.3 hPa Calm     86 % 0.00 in /  0 mm
01:15 25.8 °F /  -3.4 °C 22.2 °F /  -5.4 °C 30.41 in /  1029.7 hPa Calm     86 % 0.00 in /  0 mm
01:20 25.8 °F /  -3.4 °C 22.2 °F /  -5.4 °C 30.41 in /  1029.7 hPa Calm     86 % 0.00 in /  0 mm
01:21 25.4 °F /  -3.7 °C 22.0 °F /  -5.6 °C 30.41 in /  1029.7 hPa Calm     86 % 0.00 in /  0 mm
01:25 25.8 °F /  -3.4 °C 22.2 °F /  -5.4 °C 30.41 in /  1029.7 hPa Calm     86 % 0.00 in /  0 mm
01:30 25.6 °F /  -3.6 °C 22.3 °F /  -5.4 °C 30.41 in /  1029.7 hPa Calm     87 % 0.00 in /  0 mm
01:35 25.6 °F /  -3.6 °C 22.3 °F /  -5.4 °C 30.41 in /  1029.7 hPa Calm     87 % 0.00 in /  0 mm
01:36 25.1 °F /  -3.8 °C 22.0 °F /  -5.6 °C 30.41 in /  1029.7 hPa Calm     87 % 0.00 in /  0 mm
01:40 25.6 °F /  -3.6 °C 22.3 °F /  -5.4 °C 30.41 in /  1029.7 hPa Calm     87 % 0.00 in /  0 mm
01:45 25.2 °F /  -3.8 °C 21.6 °F /  -5.8 °C 30.42 in /  1030 hPa Calm     86 % 0.00 in /  0 mm
01:50 25.2 °F /  -3.8 °C 21.6 °F /  -5.8 °C 30.42 in /  1030 hPa Calm     86 % 0.00 in /  0 mm
01:51 24.7 °F /  -4.1 °C 21.0 °F /  -6.1 °C 30.42 in /  1030 hPa Calm     87 % 0.00 in /  0 mm
01:55 25.2 °F /  -3.8 °C 21.6 °F /  -5.8 °C 30.42 in /  1030 hPa Calm     86 % 0.00 in /  0 mm
02:00 24.8 °F /  -4 °C 21.5 °F /  -5.8 °C 30.41 in /  1029.7 hPa Calm     87 % 0.00 in /  0 mm
02:05 24.8 °F /  -4 °C 21.5 °F /  -5.8 °C 30.41 in /  1029.7 hPa Calm     87 % 0.00 in /  0 mm
02:06 24.3 °F /  -4.3 °C 21.0 °F /  -6.1 °C 30.41 in /  1029.7 hPa Calm     87 % 0.00 in /  0 mm
02:10 24.8 °F /  -4 °C 21.5 °F /  -5.8 °C 30.41 in /  1029.7 hPa Calm     87 % 0.00 in /  0 mm
02:15 24.5 °F /  -4.2 °C 21.2 °F /  -6 °C 30.41 in /  1029.7 hPa Calm     87 % 0.00 in /  0 mm
02:20 24.5 °F /  -4.2 °C 21.2 °F /  -6 °C 30.41 in /  1029.7 hPa Calm     87 % 0.00 in /  0 mm
02:21 24.5 °F /  -4.2 °C 22.0 °F /  -5.6 °C 30.39 in /  1029 hPa WNW 1.0 mph /  1.6 km/h 2.0 mph /  3.2 km/h 88 % 0.00 in /  0 mm
02:25 24.5 °F /  -4.2 °C 21.2 °F /  -6 °C 30.41 in /  1029.7 hPa Calm     87 % 0.00 in /  0 mm
02:30 24.3 °F /  -4.3 °C 21.3 °F /  -5.9 °C 30.41 in /  1029.7 hPa Calm     88 % 0.00 in /  0 mm
02:35 24.3 °F /  -4.3 °C 21.3 °F /  -5.9 °C 30.41 in /  1029.7 hPa Calm     88 % 0.00 in /  0 mm
02:36 25.2 °F /  -3.8 °C 23.0 °F /  -5 °C 30.37 in /  1028.3 hPa North 2.0 mph /  3.2 km/h 3.0 mph /  4.8 km/h 90 % 0.00 in /  0 mm
02:40 24.3 °F /  -4.3 °C 21.3 °F /  -5.9 °C 30.41 in /  1029.7 hPa Calm     88 % 0.00 in /  0 mm
02:45 24.5 °F /  -4.2 °C 21.7 °F /  -5.7 °C 30.38 in /  1028.7 hPa WNW 1.0 mph /  1.6 km/h 2.0 mph /  3.2 km/h 89 % 0.00 in /  0 mm
02:50 24.5 °F /  -4.2 °C 21.7 °F /  -5.7 °C 30.38 in /  1028.7 hPa WNW 1.0 mph /  1.6 km/h 2.0 mph /  3.2 km/h 89 % 0.00 in /  0 mm
02:51 26.4 °F /  -3.1 °C 24.0 °F /  -4.4 °C 30.39 in /  1029 hPa Calm   4.0 mph /  6.4 km/h 90 % 0.00 in /  0 mm
02:55 24.5 °F /  -4.2 °C 21.7 °F /  -5.7 °C 30.38 in /  1028.7 hPa WNW 1.0 mph /  1.6 km/h 2.0 mph /  3.2 km/h 89 % 0.00 in /  0 mm
03:00 26.1 °F /  -3.3 °C 23.6 °F /  -4.7 °C 30.38 in /  1028.7 hPa North 1.0 mph /  1.6 km/h 4.0 mph /  6.4 km/h 90 % 0.00 in /  0 mm
03:05 26.1 °F /  -3.3 °C 23.6 °F /  -4.7 °C 30.38 in /  1028.7 hPa North 1.0 mph /  1.6 km/h 4.0 mph /  6.4 km/h 90 % 0.00 in /  0 mm
03:06 26.7 °F /  -2.9 °C 24.0 °F /  -4.4 °C 30.40 in /  1029.3 hPa Calm     90 % 0.00 in /  0 mm
03:10 26.1 °F /  -3.3 °C 23.6 °F /  -4.7 °C 30.38 in /  1028.7 hPa North 1.0 mph /  1.6 km/h 4.0 mph /  6.4 km/h 90 % 0.00 in /  0 mm
03:15 26.6 °F /  -3 °C 24.1 °F /  -4.4 °C 30.40 in /  1029.3 hPa Calm   4.0 mph /  6.4 km/h 90 % 0.00 in /  0 mm
03:20 26.6 °F /  -3 °C 24.1 °F /  -4.4 °C 30.40 in /  1029.3 hPa Calm   4.0 mph /  6.4 km/h 90 % 0.00 in /  0 mm
03:21 26.6 °F /  -3 °C 24.0 °F /  -4.4 °C 30.40 in /  1029.3 hPa Calm     90 % 0.00 in /  0 mm
03:25 26.6 °F /  -3 °C 24.1 °F /  -4.4 °C 30.40 in /  1029.3 hPa Calm   4.0 mph /  6.4 km/h 90 % 0.00 in /  0 mm
03:30 26.7 °F /  -2.9 °C 24.2 °F /  -4.3 °C 30.40 in /  1029.3 hPa Calm     90 % 0.00 in /  0 mm
03:35 26.7 °F /  -2.9 °C 24.2 °F /  -4.3 °C 30.40 in /  1029.3 hPa Calm     90 % 0.00 in /  0 mm
03:36 26.1 °F /  -3.3 °C 23.0 °F /  -5 °C 30.41 in /  1029.7 hPa Calm     89 % 0.00 in /  0 mm
03:40 26.7 °F /  -2.9 °C 24.2 °F /  -4.3 °C 30.40 in /  1029.3 hPa Calm     90 % 0.00 in /  0 mm
03:45 26.3 °F /  -3.2 °C 23.8 °F /  -4.6 °C 30.41 in /  1029.7 hPa Calm     90 % 0.00 in /  0 mm
03:50 26.3 °F /  -3.2 °C 23.8 °F /  -4.6 °C 30.41 in /  1029.7 hPa Calm     90 % 0.00 in /  0 mm
03:51 25.6 °F /  -3.6 °C 23.0 °F /  -5 °C 30.41 in /  1029.7 hPa Calm     89 % 0.00 in /  0 mm
03:55 26.3 °F /  -3.2 °C 23.8 °F /  -4.6 °C 30.41 in /  1029.7 hPa Calm     90 % 0.00 in /  0 mm
04:00 25.8 °F /  -3.4 °C 23.0 °F /  -5 °C 30.41 in /  1029.7 hPa Calm     89 % 0.00 in /  0 mm
04:05 25.8 °F /  -3.4 °C 23.0 °F /  -5 °C 30.41 in /  1029.7 hPa Calm     89 % 0.00 in /  0 mm
04:06 25.1 °F /  -3.8 °C 22.0 °F /  -5.6 °C 30.40 in /  1029.3 hPa Calm     89 % 0.00 in /  0 mm
04:10 25.8 °F /  -3.4 °C 23.0 °F /  -5 °C 30.41 in /  1029.7 hPa Calm     89 % 0.00 in /  0 mm
04:15 25.3 °F /  -3.7 °C 22.5 °F /  -5.3 °C 30.40 in /  1029.3 hPa Calm     89 % 0.00 in /  0 mm
04:20 25.3 °F /  -3.7 °C 22.5 °F /  -5.3 °C 30.40 in /  1029.3 hPa Calm     89 % 0.00 in /  0 mm
04:21 24.6 °F /  -4.1 °C 22.0 °F /  -5.6 °C 30.41 in /  1029.7 hPa Calm     89 % 0.00 in /  0 mm
04:25 25.3 °F /  -3.7 °C 22.5 °F /  -5.3 °C 30.40 in /  1029.3 hPa Calm     89 % 0.00 in /  0 mm
04:30 24.8 °F /  -4 °C 22.0 °F /  -5.6 °C 30.41 in /  1029.7 hPa Calm     89 % 0.00 in /  0 mm
04:35 24.8 °F /  -4 °C 22.0 °F /  -5.6 °C 30.41 in /  1029.7 hPa Calm     89 % 0.00 in /  0 mm
04:36 24.1 °F /  -4.4 °C 21.0 °F /  -6.1 °C 30.41 in /  1029.7 hPa Calm     89 % 0.00 in /  0 mm
04:40 24.8 °F /  -4 °C 22.0 °F /  -5.6 °C 30.41 in /  1029.7 hPa Calm     89 % 0.00 in /  0 mm
04:45 24.3 °F /  -4.3 °C 21.5 °F /  -5.8 °C 30.41 in /  1029.7 hPa Calm     89 % 0.00 in /  0 mm
04:50 24.3 °F /  -4.3 °C 21.5 °F /  -5.8 °C 30.41 in /  1029.7 hPa Calm     89 % 0.00 in /  0 mm
04:51 23.9 °F /  -4.5 °C 21.0 °F /  -6.1 °C 30.40 in /  1029.3 hPa Calm     89 % 0.00 in /  0 mm
04:55 24.3 °F /  -4.3 °C 21.5 °F /  -5.8 °C 30.41 in /  1029.7 hPa Calm     89 % 0.00 in /  0 mm
05:00 23.9 °F /  -4.5 °C 21.1 °F /  -6.1 °C 30.41 in /  1029.7 hPa Calm     89 % 0.00 in /  0 mm
05:05 23.9 °F /  -4.5 °C 21.1 °F /  -6.1 °C 30.41 in /  1029.7 hPa Calm     89 % 0.00 in /  0 mm
05:06 23.6 °F /  -4.7 °C 21.0 °F /  -6.1 °C 30.41 in /  1029.7 hPa Calm     89 % 0.00 in /  0 mm
05:10 23.9 °F /  -4.5 °C 21.1 °F /  -6.1 °C 30.41 in /  1029.7 hPa Calm     89 % 0.00 in /  0 mm
05:15 23.8 °F /  -4.6 °C 21.0 °F /  -6.1 °C 30.41 in /  1029.7 hPa Calm     89 % 0.00 in /  0 mm
05:20 23.8 °F /  -4.6 °C 21.0 °F /  -6.1 °C 30.41 in /  1029.7 hPa Calm     89 % 0.00 in /  0 mm
05:21 23.3 °F /  -4.8 °C 21.0 °F /  -6.1 °C 30.41 in /  1029.7 hPa Calm     89 % 0.00 in /  0 mm
05:25 23.8 °F /  -4.6 °C 21.0 °F /  -6.1 °C 30.41 in /  1029.7 hPa Calm     89 % 0.00 in /  0 mm
05:30 23.4 °F /  -4.8 °C 20.6 °F /  -6.3 °C 30.41 in /  1029.7 hPa Calm     89 % 0.00 in /  0 mm
05:35 23.4 °F /  -4.8 °C 20.6 °F /  -6.3 °C 30.41 in /  1029.7 hPa Calm     89 % 0.00 in /  0 mm
05:36 23.0 °F /  -5 °C 20.0 °F /  -6.7 °C 30.41 in /  1029.7 hPa Calm     89 % 0.00 in /  0 mm
05:40 23.4 °F /  -4.8 °C 20.6 °F /  -6.3 °C 30.41 in /  1029.7 hPa Calm     89 % 0.00 in /  0 mm
05:45 23.1 °F /  -4.9 °C 20.4 °F /  -6.4 °C 30.41 in /  1029.7 hPa Calm     89 % 0.00 in /  0 mm
05:50 23.1 °F /  -4.9 °C 20.4 °F /  -6.4 °C 30.41 in /  1029.7 hPa Calm     89 % 0.00 in /  0 mm
05:51 23.0 °F /  -5 °C 21.0 °F /  -6.1 °C 30.41 in /  1029.7 hPa Calm     90 % 0.00 in /  0 mm
05:55 23.1 °F /  -4.9 °C 20.4 °F /  -6.4 °C 30.41 in /  1029.7 hPa Calm     89 % 0.00 in /  0 mm
06:00 23.0 °F /  -5 °C 20.5 °F /  -6.4 °C 30.42 in /  1030 hPa Calm     90 % 0.00 in /  0 mm
06:05 23.0 °F /  -5 °C 20.5 °F /  -6.4 °C 30.42 in /  1030 hPa Calm     90 % 0.00 in /  0 mm
06:06 23.1 °F /  -4.9 °C 21.0 °F /  -6.1 °C 30.40 in /  1029.3 hPa Calm     90 % 0.00 in /  0 mm
06:10 23.0 °F /  -5 °C 20.5 °F /  -6.4 °C 30.42 in /  1030 hPa Calm     90 % 0.00 in /  0 mm
06:15 23.0 °F /  -5 °C 20.5 °F /  -6.4 °C 30.41 in /  1029.7 hPa Calm     90 % 0.00 in /  0 mm
06:20 23.0 °F /  -5 °C 20.5 °F /  -6.4 °C 30.41 in /  1029.7 hPa Calm     90 % 0.00 in /  0 mm
06:21 23.4 °F /  -4.8 °C 21.0 °F /  -6.1 °C 30.40 in /  1029.3 hPa Calm     91 % 0.00 in /  0 mm
06:25 23.0 °F /  -5 °C 20.5 °F /  -6.4 °C 30.41 in /  1029.7 hPa Calm     90 % 0.00 in /  0 mm
06:30 23.3 °F /  -4.8 °C 21.1 °F /  -6.1 °C 30.40 in /  1029.3 hPa Calm     91 % 0.00 in /  0 mm
06:35 23.3 °F /  -4.8 °C 21.1 °F /  -6.1 °C 30.40 in /  1029.3 hPa Calm     91 % 0.00 in /  0 mm
06:36 23.8 °F /  -4.6 °C 22.0 °F /  -5.6 °C 30.40 in /  1029.3 hPa Calm     91 % 0.00 in /  0 mm
06:40 23.3 °F /  -4.8 °C 21.1 °F /  -6.1 °C 30.40 in /  1029.3 hPa Calm     91 % 0.00 in /  0 mm
06:45 23.6 °F /  -4.7 °C 21.4 °F /  -5.9 °C 30.40 in /  1029.3 hPa Calm     91 % 0.00 in /  0 mm
06:50 23.6 °F /  -4.7 °C 21.4 °F /  -5.9 °C 30.40 in /  1029.3 hPa Calm     91 % 0.00 in /  0 mm
06:51 24.1 °F /  -4.4 °C 22.0 °F /  -5.6 °C 30.41 in /  1029.7 hPa Calm     92 % 0.00 in /  0 mm
06:55 23.6 °F /  -4.7 °C 21.4 °F /  -5.9 °C 30.40 in /  1029.3 hPa Calm     91 % 0.00 in /  0 mm
07:00 23.9 °F /  -4.5 °C 21.7 °F /  -5.7 °C 30.41 in /  1029.7 hPa Calm     91 % 0.00 in /  0 mm
07:05 23.9 °F /  -4.5 °C 21.7 °F /  -5.7 °C 30.41 in /  1029.7 hPa Calm     91 % 0.00 in /  0 mm
07:06 24.5 °F /  -4.2 °C 23.0 °F /  -5 °C 30.39 in /  1029 hPa Calm     92 % 0.00 in /  0 mm
07:10 23.9 °F /  -4.5 °C 21.7 °F /  -5.7 °C 30.41 in /  1029.7 hPa Calm     91 % 0.00 in /  0 mm
07:15 24.2 °F /  -4.3 °C 22.2 °F /  -5.4 °C 30.40 in /  1029.3 hPa Calm     92 % 0.00 in /  0 mm
07:20 24.2 °F /  -4.3 °C 22.2 °F /  -5.4 °C 30.40 in /  1029.3 hPa Calm     92 % 0.00 in /  0 mm
07:21 24.9 °F /  -3.9 °C 23.0 °F /  -5 °C 30.41 in /  1029.7 hPa Calm     92 % 0.00 in /  0 mm
07:25 24.2 °F /  -4.3 °C 22.2 °F /  -5.4 °C 30.40 in /  1029.3 hPa Calm     92 % 0.00 in /  0 mm
07:30 24.7 °F /  -4.1 °C 22.7 °F /  -5.2 °C 30.40 in /  1029.3 hPa Calm     92 % 0.00 in /  0 mm
07:35 24.7 °F /  -4.1 °C 22.7 °F /  -5.2 °C 30.40 in /  1029.3 hPa Calm     92 % 0.00 in /  0 mm
07:36 25.2 °F /  -3.8 °C 23.0 °F /  -5 °C 30.42 in /  1030 hPa Calm     92 % 0.00 in /  0 mm
07:40 24.7 °F /  -4.1 °C 22.7 °F /  -5.2 °C 30.40 in /  1029.3 hPa Calm     92 % 0.00 in /  0 mm
07:45 25.1 °F /  -3.8 °C 23.1 °F /  -4.9 °C 30.42 in /  1030 hPa Calm     92 % 0.00 in /  0 mm
07:50 25.1 °F /  -3.8 °C 23.1 °F /  -4.9 °C 30.42 in /  1030 hPa Calm     92 % 0.00 in /  0 mm
07:51 26.2 °F /  -3.2 °C 25.0 °F /  -3.9 °C 30.42 in /  1030 hPa SW 1.0 mph /  1.6 km/h 4.0 mph /  6.4 km/h 93 % 0.00 in /  0 mm
07:55 25.1 °F /  -3.8 °C 23.1 °F /  -4.9 °C 30.42 in /  1030 hPa Calm     92 % 0.00 in /  0 mm
08:00 25.6 °F /  -3.6 °C 23.9 °F /  -4.5 °C 30.42 in /  1030 hPa Calm     93 % 0.00 in /  0 mm
08:05 25.6 °F /  -3.6 °C 23.9 °F /  -4.5 °C 30.42 in /  1030 hPa Calm     93 % 0.00 in /  0 mm
08:06 27.4 °F /  -2.6 °C 26.0 °F /  -3.3 °C 30.43 in /  1030.4 hPa SW 3.0 mph /  4.8 km/h 3.0 mph /  4.8 km/h 93 % 0.00 in /  0 mm
08:10 25.6 °F /  -3.6 °C 23.9 °F /  -4.5 °C 30.42 in /  1030 hPa Calm     93 % 0.00 in /  0 mm
08:15 27.0 °F /  -2.8 °C 25.2 °F /  -3.8 °C 30.43 in /  1030.4 hPa SW 1.0 mph /  1.6 km/h 4.0 mph /  6.4 km/h 93 % 0.00 in /  0 mm
08:20 27.0 °F /  -2.8 °C 25.2 °F /  -3.8 °C 30.43 in /  1030.4 hPa SW 1.0 mph /  1.6 km/h 4.0 mph /  6.4 km/h 93 % 0.00 in /  0 mm
08:21 28.2 °F /  -2.1 °C 26.0 °F /  -3.3 °C 30.45 in /  1031 hPa SW 2.0 mph /  3.2 km/h 4.0 mph /  6.4 km/h 92 % 0.00 in /  0 mm
08:25 27.0 °F /  -2.8 °C 25.2 °F /  -3.8 °C 30.43 in /  1030.4 hPa SW 1.0 mph /  1.6 km/h 4.0 mph /  6.4 km/h 93 % 0.00 in /  0 mm
08:30 27.9 °F /  -2.3 °C 26.1 °F /  -3.3 °C 30.44 in /  1030.7 hPa SW 1.0 mph /  1.6 km/h 5.0 mph /  8 km/h 93 % 0.00 in /  0 mm
08:35 27.9 °F /  -2.3 °C 26.1 °F /  -3.3 °C 30.44 in /  1030.7 hPa SW 1.0 mph /  1.6 km/h 5.0 mph /  8 km/h 93 % 0.00 in /  0 mm
08:40 27.9 °F /  -2.3 °C 26.1 °F /  -3.3 °C 30.44 in /  1030.7 hPa SW 1.0 mph /  1.6 km/h 5.0 mph /  8 km/h 93 % 0.00 in /  0 mm
08:45 29.8 °F /  -1.2 °C 27.5 °F /  -2.5 °C 30.45 in /  1031 hPa SW 2.0 mph /  3.2 km/h 2.0 mph /  3.2 km/h 91 % 0.00 in /  0 mm
08:50 30.2 °F /  -1 °C 27.6 °F /  -2.4 °C 30.45 in /  1031 hPa SW 2.0 mph /  3.2 km/h 3.0 mph /  4.8 km/h 90 % 0.00 in /  0 mm
08:51 30.2 °F /  -1 °C 28.0 °F /  -2.2 °C 30.45 in /  1031 hPa Calm   6.0 mph /  9.7 km/h 90 % 0.00 in /  0 mm
08:55 30.3 °F /  -0.9 °C 27.5 °F /  -2.5 °C 30.45 in /  1031 hPa SW 2.0 mph /  3.2 km/h 2.0 mph /  3.2 km/h 89 % 0.00 in /  0 mm
09:00 30.5 °F /  -0.8 °C 27.4 °F /  -2.6 °C 30.46 in /  1031.4 hPa SW 2.0 mph /  3.2 km/h 2.0 mph /  3.2 km/h 88 % 0.00 in /  0 mm
09:05 30.6 °F /  -0.8 °C 27.2 °F /  -2.7 °C 30.46 in /  1031.4 hPa SW 2.0 mph /  3.2 km/h 2.0 mph /  3.2 km/h 87 % 0.00 in /  0 mm
09:07 30.7 °F /  -0.7 °C 27.0 °F /  -2.8 °C 30.46 in /  1031.4 hPa Calm   3.0 mph /  4.8 km/h 87 % 0.00 in /  0 mm
09:10 30.7 °F /  -0.7 °C 27.3 °F /  -2.6 °C 30.46 in /  1031.4 hPa SW 1.0 mph /  1.6 km/h 3.0 mph /  4.8 km/h 87 % 0.00 in /  0 mm
09:15 31.1 °F /  -0.5 °C 27.7 °F /  -2.4 °C 30.46 in /  1031.4 hPa SW 1.0 mph /  1.6 km/h   87 % 0.00 in /  0 mm
09:20 31.5 °F /  -0.3 °C 27.8 °F /  -2.3 °C 30.46 in /  1031.4 hPa SSW 1.0 mph /  1.6 km/h 4.0 mph /  6.4 km/h 86 % 0.00 in /  0 mm
09:22 31.8 °F /  -0.1 °C 28.0 °F /  -2.2 °C 30.46 in /  1031.4 hPa South 2.0 mph /  3.2 km/h 6.0 mph /  9.7 km/h 86 % 0.00 in /  0 mm
09:25 31.8 °F /  -0.1 °C 28.1 °F /  -2.2 °C 30.46 in /  1031.4 hPa SSW 1.0 mph /  1.6 km/h 6.0 mph /  9.7 km/h 86 % 0.00 in /  0 mm
09:30 31.8 °F /  -0.1 °C 28.1 °F /  -2.2 °C 30.46 in /  1031.4 hPa SSW 1.0 mph /  1.6 km/h 6.0 mph /  9.7 km/h 86 % 0.00 in /  0 mm
09:35 32.9 °F /  0.5 °C 28.3 °F /  -2.1 °C 30.46 in /  1031.4 hPa South 2.0 mph /  3.2 km/h 6.0 mph /  9.7 km/h 83 % 0.00 in /  0 mm
09:37 33.5 °F /  0.8 °C 28.0 °F /  -2.2 °C 30.46 in /  1031.4 hPa South 1.0 mph /  1.6 km/h 9.0 mph /  14.5 km/h 80 % 0.00 in /  0 mm
09:40 32.9 °F /  0.5 °C 28.3 °F /  -2.1 °C 30.46 in /  1031.4 hPa South 2.0 mph /  3.2 km/h 6.0 mph /  9.7 km/h 83 % 0.00 in /  0 mm
09:45 32.9 °F /  0.5 °C 28.3 °F /  -2.1 °C 30.46 in /  1031.4 hPa South 2.0 mph /  3.2 km/h 6.0 mph /  9.7 km/h 83 % 0.00 in /  0 mm
09:50 34.1 °F /  1.2 °C 28.0 °F /  -2.2 °C 30.46 in /  1031.4 hPa South 2.0 mph /  3.2 km/h 9.0 mph /  14.5 km/h 78 % 0.00 in /  0 mm
09:52 34.5 °F /  1.4 °C 28.0 °F /  -2.2 °C 30.46 in /  1031.4 hPa South 1.0 mph /  1.6 km/h 6.0 mph /  9.7 km/h 76 % 0.00 in /  0 mm
09:55 34.1 °F /  1.2 °C 28.0 °F /  -2.2 °C 30.46 in /  1031.4 hPa South 2.0 mph /  3.2 km/h 9.0 mph /  14.5 km/h 78 % 0.00 in /  0 mm
10:00 34.1 °F /  1.2 °C 28.0 °F /  -2.2 °C 30.46 in /  1031.4 hPa South 2.0 mph /  3.2 km/h 9.0 mph /  14.5 km/h 78 % 0.00 in /  0 mm
10:05 35.3 °F /  1.8 °C 28.2 °F /  -2.1 °C 30.46 in /  1031.4 hPa South 2.0 mph /  3.2 km/h 6.0 mph /  9.7 km/h 75 % 0.00 in /  0 mm
10:07 36.1 °F /  2.3 °C 28.0 °F /  -2.2 °C 30.45 in /  1031 hPa South 2.0 mph /  3.2 km/h 8.0 mph /  12.9 km/h 72 % 0.00 in /  0 mm
10:10 35.3 °F /  1.8 °C 28.2 °F /  -2.1 °C 30.46 in /  1031.4 hPa South 2.0 mph /  3.2 km/h 6.0 mph /  9.7 km/h 75 % 0.00 in /  0 mm
10:15 35.3 °F /  1.8 °C 28.2 °F /  -2.1 °C 30.46 in /  1031.4 hPa South 2.0 mph /  3.2 km/h 6.0 mph /  9.7 km/h 75 % 0.00 in /  0 mm
10:20 36.8 °F /  2.7 °C 28.3 °F /  -2.1 °C 30.45 in /  1031 hPa South 3.0 mph /  4.8 km/h 9.0 mph /  14.5 km/h 71 % 0.00 in /  0 mm
10:22 37.6 °F /  3.1 °C 28.0 °F /  -2.2 °C 30.45 in /  1031 hPa SE 3.0 mph /  4.8 km/h 5.0 mph /  8 km/h 69 % 0.00 in /  0 mm
10:25 36.8 °F /  2.7 °C 28.3 °F /  -2.1 °C 30.45 in /  1031 hPa South 3.0 mph /  4.8 km/h 9.0 mph /  14.5 km/h 71 % 0.00 in /  0 mm
10:30 36.8 °F /  2.7 °C 28.3 °F /  -2.1 °C 30.45 in /  1031 hPa South 3.0 mph /  4.8 km/h 9.0 mph /  14.5 km/h 71 % 0.00 in /  0 mm
10:35 39.0 °F /  3.9 °C 28.3 °F /  -2.1 °C 30.45 in /  1031 hPa South 2.0 mph /  3.2 km/h 7.0 mph /  11.3 km/h 65 % 0.00 in /  0 mm
10:37 39.2 °F /  4 °C 27.0 °F /  -2.8 °C 30.44 in /  1030.7 hPa SSE 4.0 mph /  6.4 km/h 9.0 mph /  14.5 km/h 63 % 0.00 in /  0 mm
10:40 39.0 °F /  3.9 °C 28.3 °F /  -2.1 °C 30.45 in /  1031 hPa South 2.0 mph /  3.2 km/h 7.0 mph /  11.3 km/h 65 % 0.00 in /  0 mm
10:45 39.0 °F /  3.9 °C 28.3 °F /  -2.1 °C 30.45 in /  1031 hPa South 2.0 mph /  3.2 km/h 7.0 mph /  11.3 km/h 65 % 0.00 in /  0 mm
10:50 39.5 °F /  4.2 °C 28.0 °F /  -2.2 °C 30.44 in /  1030.7 hPa SE 3.0 mph /  4.8 km/h 9.0 mph /  14.5 km/h 63 % 0.00 in /  0 mm
10:52 39.5 °F /  4.2 °C 27.0 °F /  -2.8 °C 30.44 in /  1030.7 hPa SSE 4.0 mph /  6.4 km/h 9.0 mph /  14.5 km/h 62 % 0.00 in /  0 mm
10:55 39.5 °F /  4.2 °C 28.0 °F /  -2.2 °C 30.44 in /  1030.7 hPa SE 3.0 mph /  4.8 km/h 9.0 mph /  14.5 km/h 63 % 0.00 in /  0 mm
11:00 39.5 °F /  4.2 °C 28.0 °F /  -2.2 °C 30.44 in /  1030.7 hPa SE 3.0 mph /  4.8 km/h 9.0 mph /  14.5 km/h 63 % 0.00 in /  0 mm
11:05 40.3 °F /  4.6 °C 27.9 °F /  -2.3 °C 30.43 in /  1030.4 hPa SSE 3.0 mph /  4.8 km/h 10.0 mph /  16.1 km/h 61 % 0.00 in /  0 mm
11:07 40.9 °F /  4.9 °C 28.0 °F /  -2.2 °C 30.43 in /  1030.4 hPa East 2.0 mph /  3.2 km/h 8.0 mph /  12.9 km/h 60 % 0.00 in /  0 mm
11:10 40.3 °F /  4.6 °C 27.9 °F /  -2.3 °C 30.43 in /  1030.4 hPa SSE 3.0 mph /  4.8 km/h 10.0 mph /  16.1 km/h 61 % 0.00 in /  0 mm
11:15 40.3 °F /  4.6 °C 27.9 °F /  -2.3 °C 30.43 in /  1030.4 hPa SSE 3.0 mph /  4.8 km/h 10.0 mph /  16.1 km/h 61 % 0.00 in /  0 mm
11:20 41.8 °F /  5.4 °C 28.5 °F /  -1.9 °C 30.43 in /  1030.4 hPa ESE 3.0 mph /  4.8 km/h 9.0 mph /  14.5 km/h 59 % 0.00 in /  0 mm
11:22 42.3 °F /  5.7 °C 27.0 °F /  -2.8 °C 30.43 in /  1030.4 hPa SSE 4.0 mph /  6.4 km/h 10.0 mph /  16.1 km/h 55 % 0.00 in /  0 mm
11:25 41.8 °F /  5.4 °C 28.5 °F /  -1.9 °C 30.43 in /  1030.4 hPa ESE 3.0 mph /  4.8 km/h 9.0 mph /  14.5 km/h 59 % 0.00 in /  0 mm
11:30 41.8 °F /  5.4 °C 28.5 °F /  -1.9 °C 30.43 in /  1030.4 hPa ESE 3.0 mph /  4.8 km/h 9.0 mph /  14.5 km/h 59 % 0.00 in /  0 mm
11:35 42.2 °F /  5.7 °C 27.2 °F /  -2.7 °C 30.43 in /  1030.4 hPa South 4.0 mph /  6.4 km/h 10.0 mph /  16.1 km/h 55 % 0.00 in /  0 mm
11:37 42.7 °F /  5.9 °C 26.0 °F /  -3.3 °C 30.43 in /  1030.4 hPa SE 3.0 mph /  4.8 km/h 8.0 mph /  12.9 km/h 53 % 0.00 in /  0 mm
11:40 42.2 °F /  5.7 °C 27.2 °F /  -2.7 °C 30.43 in /  1030.4 hPa South 4.0 mph /  6.4 km/h 10.0 mph /  16.1 km/h 55 % 0.00 in /  0 mm
11:45 42.2 °F /  5.7 °C 27.2 °F /  -2.7 °C 30.43 in /  1030.4 hPa South 4.0 mph /  6.4 km/h 10.0 mph /  16.1 km/h 55 % 0.00 in /  0 mm
11:50 43.5 °F /  6.4 °C 26.6 °F /  -3 °C 30.43 in /  1030.4 hPa SSE 3.0 mph /  4.8 km/h 9.0 mph /  14.5 km/h 51 % 0.00 in /  0 mm
11:52 44.2 °F /  6.8 °C 27.0 °F /  -2.8 °C 30.43 in /  1030.4 hPa East 2.0 mph /  3.2 km/h 8.0 mph /  12.9 km/h 51 % 0.00 in /  0 mm
11:55 43.5 °F /  6.4 °C 26.6 °F /  -3 °C 30.43 in /  1030.4 hPa SSE 3.0 mph /  4.8 km/h 9.0 mph /  14.5 km/h 51 % 0.00 in /  0 mm
12:00 43.5 °F /  6.4 °C 26.6 °F /  -3 °C 30.43 in /  1030.4 hPa SSE 3.0 mph /  4.8 km/h 9.0 mph /  14.5 km/h 51 % 0.00 in /  0 mm
12:05 44.7 °F /  7.1 °C 27.7 °F /  -2.4 °C 30.43 in /  1030.4 hPa ESE 3.0 mph /  4.8 km/h 9.0 mph /  14.5 km/h 51 % 0.00 in /  0 mm
12:07 44.5 °F /  6.9 °C 25.0 °F /  -3.9 °C 30.42 in /  1030 hPa SSE 5.0 mph /  8 km/h 11.0 mph /  17.7 km/h 47 % 0.00 in /  0 mm
12:10 44.7 °F /  7.1 °C 27.7 °F /  -2.4 °C 30.43 in /  1030.4 hPa ESE 3.0 mph /  4.8 km/h 9.0 mph /  14.5 km/h 51 % 0.00 in /  0 mm
12:15 44.7 °F /  7.1 °C 27.7 °F /  -2.4 °C 30.43 in /  1030.4 hPa ESE 3.0 mph /  4.8 km/h 9.0 mph /  14.5 km/h 51 % 0.00 in /  0 mm
12:20 43.8 °F /  6.6 °C 25.4 °F /  -3.7 °C 30.42 in /  1030 hPa SSE 4.0 mph /  6.4 km/h 11.0 mph /  17.7 km/h 48 % 0.00 in /  0 mm
12:22 44.2 °F /  6.8 °C 26.0 °F /  -3.3 °C 30.41 in /  1029.7 hPa SSE 1.0 mph /  1.6 km/h 8.0 mph /  12.9 km/h 49 % 0.00 in /  0 mm
12:25 43.8 °F /  6.6 °C 25.4 °F /  -3.7 °C 30.42 in /  1030 hPa SSE 4.0 mph /  6.4 km/h 11.0 mph /  17.7 km/h 48 % 0.00 in /  0 mm
12:30 43.8 °F /  6.6 °C 25.4 °F /  -3.7 °C 30.42 in /  1030 hPa SSE 4.0 mph /  6.4 km/h 11.0 mph /  17.7 km/h 48 % 0.00 in /  0 mm
12:35 45.8 °F /  7.7 °C 26.7 °F /  -2.9 °C 30.40 in /  1029.3 hPa SE 4.0 mph /  6.4 km/h 13.0 mph /  20.9 km/h 47 % 0.00 in /  0 mm
12:40 45.8 °F /  7.7 °C 26.7 °F /  -2.9 °C 30.40 in /  1029.3 hPa SE 4.0 mph /  6.4 km/h 13.0 mph /  20.9 km/h 47 % 0.00 in /  0 mm
12:45 45.8 °F /  7.7 °C 26.7 °F /  -2.9 °C 30.40 in /  1029.3 hPa SE 4.0 mph /  6.4 km/h 13.0 mph /  20.9 km/h 47 % 0.00 in /  0 mm
12:50 46.3 °F /  7.9 °C 26.7 °F /  -2.9 °C 30.39 in /  1029 hPa SE 3.0 mph /  4.8 km/h 10.0 mph /  16.1 km/h 46 % 0.00 in /  0 mm
12:52 47.0 °F /  8.3 °C 27.0 °F /  -2.8 °C 30.38 in /  1028.7 hPa SE 4.0 mph /  6.4 km/h 10.0 mph /  16.1 km/h 46 % 0.00 in /  0 mm
12:55 46.3 °F /  7.9 °C 26.7 °F /  -2.9 °C 30.39 in /  1029 hPa SE 3.0 mph /  4.8 km/h 10.0 mph /  16.1 km/h 46 % 0.00 in /  0 mm
13:00 46.3 °F /  7.9 °C 26.7 °F /  -2.9 °C 30.39 in /  1029 hPa SE 3.0 mph /  4.8 km/h 10.0 mph /  16.1 km/h 46 % 0.00 in /  0 mm
13:05 47.2 °F /  8.4 °C 26.4 °F /  -3.1 °C 30.38 in /  1028.7 hPa SE 3.0 mph /  4.8 km/h 10.0 mph /  16.1 km/h 44 % 0.00 in /  0 mm
13:07 47.8 °F /  8.8 °C 26.0 °F /  -3.3 °C 30.37 in /  1028.3 hPa South 2.0 mph /  3.2 km/h 8.0 mph /  12.9 km/h 42 % 0.00 in /  0 mm
13:10 47.2 °F /  8.4 °C 26.4 °F /  -3.1 °C 30.38 in /  1028.7 hPa SE 3.0 mph /  4.8 km/h 10.0 mph /  16.1 km/h 44 % 0.00 in /  0 mm
13:15 47.2 °F /  8.4 °C 26.4 °F /  -3.1 °C 30.38 in /  1028.7 hPa SE 3.0 mph /  4.8 km/h 10.0 mph /  16.1 km/h 44 % 0.00 in /  0 mm
13:20 48.1 °F /  8.9 °C 23.7 °F /  -4.6 °C 30.36 in /  1028 hPa SSE 3.0 mph /  4.8 km/h 12.0 mph /  19.3 km/h 38 % 0.00 in /  0 mm
13:22 48.1 °F /  8.9 °C 24.0 °F /  -4.4 °C 30.35 in /  1027.7 hPa SE 2.0 mph /  3.2 km/h 10.0 mph /  16.1 km/h 39 % 0.00 in /  0 mm
13:25 48.1 °F /  8.9 °C 23.7 °F /  -4.6 °C 30.36 in /  1028 hPa SSE 3.0 mph /  4.8 km/h 12.0 mph /  19.3 km/h 38 % 0.00 in /  0 mm
13:30 48.1 °F /  8.9 °C 23.7 °F /  -4.6 °C 30.36 in /  1028 hPa SSE 3.0 mph /  4.8 km/h 12.0 mph /  19.3 km/h 38 % 0.00 in /  0 mm
13:35 48.8 °F /  9.3 °C 25.0 °F /  -3.9 °C 30.35 in /  1027.7 hPa SSE 4.0 mph /  6.4 km/h 10.0 mph /  16.1 km/h 39 % 0.00 in /  0 mm
13:37 48.4 °F /  9.1 °C 24.0 °F /  -4.4 °C 30.34 in /  1027.3 hPa SE 5.0 mph /  8 km/h 12.0 mph /  19.3 km/h 38 % 0.00 in /  0 mm
13:40 48.8 °F /  9.3 °C 25.0 °F /  -3.9 °C 30.35 in /  1027.7 hPa SSE 4.0 mph /  6.4 km/h 10.0 mph /  16.1 km/h 39 % 0.00 in /  0 mm
13:45 48.8 °F /  9.3 °C 25.0 °F /  -3.9 °C 30.35 in /  1027.7 hPa SSE 4.0 mph /  6.4 km/h 10.0 mph /  16.1 km/h 39 % 0.00 in /  0 mm
13:50 48.8 °F /  9.3 °C 25.0 °F /  -3.9 °C 30.33 in /  1027 hPa SSE 4.0 mph /  6.4 km/h 12.0 mph /  19.3 km/h 39 % 0.00 in /  0 mm
13:53 49.1 °F /  9.5 °C 22.0 °F /  -5.6 °C 30.32 in /  1026.6 hPa ESE 2.0 mph /  3.2 km/h 12.0 mph /  19.3 km/h 35 % 0.00 in /  0 mm
13:55 48.8 °F /  9.3 °C 25.0 °F /  -3.9 °C 30.33 in /  1027 hPa SSE 4.0 mph /  6.4 km/h 12.0 mph /  19.3 km/h 39 % 0.00 in /  0 mm
14:00 48.8 °F /  9.3 °C 25.0 °F /  -3.9 °C 30.33 in /  1027 hPa SSE 4.0 mph /  6.4 km/h 12.0 mph /  19.3 km/h 39 % 0.00 in /  0 mm
14:05 49.3 °F /  9.6 °C 22.8 °F /  -5.1 °C 30.32 in /  1026.6 hPa SSE 5.0 mph /  8 km/h 13.0 mph /  20.9 km/h 35 % 0.00 in /  0 mm
14:08 49.4 °F /  9.7 °C 23.0 °F /  -5 °C 30.31 in /  1026.3 hPa South 1.0 mph /  1.6 km/h 15.0 mph /  24.1 km/h 36 % 0.00 in /  0 mm
14:10 49.3 °F /  9.6 °C 22.8 °F /  -5.1 °C 30.32 in /  1026.6 hPa SSE 5.0 mph /  8 km/h 13.0 mph /  20.9 km/h 35 % 0.00 in /  0 mm
14:15 49.3 °F /  9.6 °C 22.8 °F /  -5.1 °C 30.32 in /  1026.6 hPa SSE 5.0 mph /  8 km/h 13.0 mph /  20.9 km/h 35 % 0.00 in /  0 mm
14:20 49.5 °F /  9.7 °C 23.7 °F /  -4.6 °C 30.30 in /  1026 hPa South 4.0 mph /  6.4 km/h 16.0 mph /  25.7 km/h 36 % 0.00 in /  0 mm
14:23 49.5 °F /  9.7 °C 23.0 °F /  -5 °C 30.30 in /  1026 hPa SSE 4.0 mph /  6.4 km/h 20.0 mph /  32.2 km/h 35 % 0.00 in /  0 mm
14:25 49.5 °F /  9.7 °C 23.7 °F /  -4.6 °C 30.30 in /  1026 hPa South 4.0 mph /  6.4 km/h 16.0 mph /  25.7 km/h 36 % 0.00 in /  0 mm
14:30 49.5 °F /  9.7 °C 23.7 °F /  -4.6 °C 30.30 in /  1026 hPa South 4.0 mph /  6.4 km/h 16.0 mph /  25.7 km/h 36 % 0.00 in /  0 mm
14:35 49.6 °F /  9.8 °C 22.4 °F /  -5.3 °C 30.29 in /  1025.6 hPa SSE 5.0 mph /  8 km/h 22.0 mph /  35.4 km/h 34 % 0.00 in /  0 mm
14:38 49.9 °F /  9.9 °C 22.0 °F /  -5.6 °C 30.28 in /  1025.3 hPa SSE 7.0 mph /  11.3 km/h 11.0 mph /  17.7 km/h 34 % 0.00 in /  0 mm
14:40 49.6 °F /  9.8 °C 22.4 °F /  -5.3 °C 30.29 in /  1025.6 hPa SSE 5.0 mph /  8 km/h 22.0 mph /  35.4 km/h 34 % 0.00 in /  0 mm
14:45 49.6 °F /  9.8 °C 22.4 °F /  -5.3 °C 30.29 in /  1025.6 hPa SSE 5.0 mph /  8 km/h 22.0 mph /  35.4 km/h 34 % 0.00 in /  0 mm
14:50 49.9 °F /  9.9 °C 22.7 °F /  -5.2 °C 30.28 in /  1025.3 hPa SSE 5.0 mph /  8 km/h 16.0 mph /  25.7 km/h 34 % 0.00 in /  0 mm
14:53 49.9 °F /  9.9 °C 22.0 °F /  -5.6 °C 30.28 in /  1025.3 hPa South 3.0 mph /  4.8 km/h 13.0 mph /  20.9 km/h 33 % 0.00 in /  0 mm
14:55 49.9 °F /  9.9 °C 22.7 °F /  -5.2 °C 30.28 in /  1025.3 hPa SSE 5.0 mph /  8 km/h 16.0 mph /  25.7 km/h 34 % 0.00 in /  0 mm
15:05 50.1 °F /  10.1 °C 23.5 °F /  -4.7 °C 30.28 in /  1025.3 hPa South 4.0 mph /  6.4 km/h 15.0 mph /  24.1 km/h 35 % 0.00 in /  0 mm
15:08 50.1 °F /  10.1 °C 21.0 °F /  -6.1 °C 30.29 in /  1025.6 hPa South 8.0 mph /  12.9 km/h 11.0 mph /  17.7 km/h 32 % 0.00 in /  0 mm
15:10 50.1 °F /  10.1 °C 23.5 °F /  -4.7 °C 30.28 in /  1025.3 hPa South 4.0 mph /  6.4 km/h 15.0 mph /  24.1 km/h 35 % 0.00 in /  0 mm
15:15 50.1 °F /  10.1 °C 23.5 °F /  -4.7 °C 30.28 in /  1025.3 hPa South 4.0 mph /  6.4 km/h 15.0 mph /  24.1 km/h 35 % 0.00 in /  0 mm
15:20 50.0 °F /  10 °C 22.8 °F /  -5.1 °C 30.29 in /  1025.6 hPa South 5.0 mph /  8 km/h 11.0 mph /  17.7 km/h 34 % 0.00 in /  0 mm
15:23 50.0 °F /  10 °C 22.0 °F /  -5.6 °C 30.28 in /  1025.3 hPa ESE 9.0 mph /  14.5 km/h 14.0 mph /  22.5 km/h 33 % 0.00 in /  0 mm
15:25 50.0 °F /  10 °C 22.8 °F /  -5.1 °C 30.29 in /  1025.6 hPa South 5.0 mph /  8 km/h 11.0 mph /  17.7 km/h 34 % 0.00 in /  0 mm
15:30 50.0 °F /  10 °C 22.8 °F /  -5.1 °C 30.29 in /  1025.6 hPa South 5.0 mph /  8 km/h 11.0 mph /  17.7 km/h 34 % 0.00 in /  0 mm
15:35 49.9 °F /  9.9 °C 22.0 °F /  -5.6 °C 30.28 in /  1025.3 hPa SSE 4.0 mph /  6.4 km/h 16.0 mph /  25.7 km/h 33 % 0.00 in /  0 mm
15:38 49.9 °F /  9.9 °C 21.0 °F /  -6.1 °C 30.28 in /  1025.3 hPa South 7.0 mph /  11.3 km/h 10.0 mph /  16.1 km/h 32 % 0.00 in /  0 mm
15:40 49.9 °F /  9.9 °C 22.0 °F /  -5.6 °C 30.28 in /  1025.3 hPa SSE 4.0 mph /  6.4 km/h 16.0 mph /  25.7 km/h 33 % 0.00 in /  0 mm
15:45 49.9 °F /  9.9 °C 22.0 °F /  -5.6 °C 30.28 in /  1025.3 hPa SSE 4.0 mph /  6.4 km/h 16.0 mph /  25.7 km/h 33 % 0.00 in /  0 mm
15:50 49.9 °F /  9.9 °C 22.0 °F /  -5.6 °C 30.28 in /  1025.3 hPa SE 5.0 mph /  8 km/h 16.0 mph /  25.7 km/h 33 % 0.00 in /  0 mm
15:53 50.2 °F /  10.1 °C 22.0 °F /  -5.6 °C 30.28 in /  1025.3 hPa SE 5.0 mph /  8 km/h 11.0 mph /  17.7 km/h 33 % 0.00 in /  0 mm
15:55 49.9 °F /  9.9 °C 22.0 °F /  -5.6 °C 30.28 in /  1025.3 hPa SE 5.0 mph /  8 km/h 16.0 mph /  25.7 km/h 33 % 0.00 in /  0 mm
16:00 49.9 °F /  9.9 °C 22.0 °F /  -5.6 °C 30.28 in /  1025.3 hPa SE 5.0 mph /  8 km/h 16.0 mph /  25.7 km/h 33 % 0.00 in /  0 mm
16:05 49.9 °F /  9.9 °C 22.7 °F /  -5.2 °C 30.28 in /  1025.3 hPa SSE 4.0 mph /  6.4 km/h 13.0 mph /  20.9 km/h 34 % 0.00 in /  0 mm
16:08 50.2 °F /  10.1 °C 22.0 °F /  -5.6 °C 30.28 in /  1025.3 hPa ESE 3.0 mph /  4.8 km/h 11.0 mph /  17.7 km/h 33 % 0.00 in /  0 mm
16:10 49.9 °F /  9.9 °C 22.7 °F /  -5.2 °C 30.28 in /  1025.3 hPa SSE 4.0 mph /  6.4 km/h 13.0 mph /  20.9 km/h 34 % 0.00 in /  0 mm
16:15 49.9 °F /  9.9 °C 22.7 °F /  -5.2 °C 30.28 in /  1025.3 hPa SSE 4.0 mph /  6.4 km/h 13.0 mph /  20.9 km/h 34 % 0.00 in /  0 mm
16:20 50.1 °F /  10.1 °C 22.1 °F /  -5.5 °C 30.28 in /  1025.3 hPa SSE 4.0 mph /  6.4 km/h 15.0 mph /  24.1 km/h 33 % 0.00 in /  0 mm
16:23 50.0 °F /  10 °C 22.0 °F /  -5.6 °C 30.28 in /  1025.3 hPa SE 3.0 mph /  4.8 km/h 8.0 mph /  12.9 km/h 34 % 0.00 in /  0 mm
16:25 50.1 °F /  10.1 °C 22.1 °F /  -5.5 °C 30.28 in /  1025.3 hPa SSE 4.0 mph /  6.4 km/h 15.0 mph /  24.1 km/h 33 % 0.00 in /  0 mm
16:30 50.1 °F /  10.1 °C 22.1 °F /  -5.5 °C 30.28 in /  1025.3 hPa SSE 4.0 mph /  6.4 km/h 15.0 mph /  24.1 km/h 33 % 0.00 in /  0 mm
16:35 49.9 °F /  9.9 °C 22.7 °F /  -5.2 °C 30.28 in /  1025.3 hPa SE 4.0 mph /  6.4 km/h 11.0 mph /  17.7 km/h 34 % 0.00 in /  0 mm
16:38 49.8 °F /  9.9 °C 22.0 °F /  -5.6 °C 30.27 in /  1024.9 hPa SSE 6.0 mph /  9.7 km/h 9.0 mph /  14.5 km/h 33 % 0.00 in /  0 mm
16:40 49.9 °F /  9.9 °C 22.7 °F /  -5.2 °C 30.28 in /  1025.3 hPa SE 4.0 mph /  6.4 km/h 11.0 mph /  17.7 km/h 34 % 0.00 in /  0 mm
16:45 49.9 °F /  9.9 °C 22.7 °F /  -5.2 °C 30.28 in /  1025.3 hPa SE 4.0 mph /  6.4 km/h 11.0 mph /  17.7 km/h 34 % 0.00 in /  0 mm
16:50 49.8 °F /  9.9 °C 22.6 °F /  -5.2 °C 30.27 in /  1024.9 hPa SSE 4.0 mph /  6.4 km/h 18.0 mph /  29 km/h 34 % 0.00 in /  0 mm
16:53 49.5 °F /  9.7 °C 21.0 °F /  -6.1 °C 30.27 in /  1024.9 hPa SSE 3.0 mph /  4.8 km/h 19.0 mph /  30.6 km/h 33 % 0.00 in /  0 mm
16:55 49.8 °F /  9.9 °C 22.6 °F /  -5.2 °C 30.27 in /  1024.9 hPa SSE 4.0 mph /  6.4 km/h 18.0 mph /  29 km/h 34 % 0.00 in /  0 mm
17:00 49.8 °F /  9.9 °C 22.6 °F /  -5.2 °C 30.27 in /  1024.9 hPa SSE 4.0 mph /  6.4 km/h 18.0 mph /  29 km/h 34 % 0.00 in /  0 mm
17:05 49.2 °F /  9.6 °C 22.0 °F /  -5.6 °C 30.26 in /  1024.6 hPa SSE 5.0 mph /  8 km/h 14.0 mph /  22.5 km/h 34 % 0.00 in /  0 mm
17:08 49.1 °F /  9.5 °C 22.0 °F /  -5.6 °C 30.26 in /  1024.6 hPa SSE 6.0 mph /  9.7 km/h 10.0 mph /  16.1 km/h 34 % 0.00 in /  0 mm
17:10 49.2 °F /  9.6 °C 22.0 °F /  -5.6 °C 30.26 in /  1024.6 hPa SSE 5.0 mph /  8 km/h 14.0 mph /  22.5 km/h 34 % 0.00 in /  0 mm
17:15 49.2 °F /  9.6 °C 22.0 °F /  -5.6 °C 30.26 in /  1024.6 hPa SSE 5.0 mph /  8 km/h 14.0 mph /  22.5 km/h 34 % 0.00 in /  0 mm
17:20 49.0 °F /  9.4 °C 21.9 °F /  -5.6 °C 30.26 in /  1024.6 hPa South 5.0 mph /  8 km/h 14.0 mph /  22.5 km/h 34 % 0.00 in /  0 mm
17:23 48.8 °F /  9.3 °C 22.0 °F /  -5.6 °C 30.26 in /  1024.6 hPa SSE 1.0 mph /  1.6 km/h 12.0 mph /  19.3 km/h 35 % 0.00 in /  0 mm
17:25 49.0 °F /  9.4 °C 21.9 °F /  -5.6 °C 30.26 in /  1024.6 hPa South 5.0 mph /  8 km/h 14.0 mph /  22.5 km/h 34 % 0.00 in /  0 mm
17:30 49.0 °F /  9.4 °C 21.9 °F /  -5.6 °C 30.26 in /  1024.6 hPa South 5.0 mph /  8 km/h 14.0 mph /  22.5 km/h 34 % 0.00 in /  0 mm
17:35 48.6 °F /  9.2 °C 22.2 °F /  -5.4 °C 30.26 in /  1024.6 hPa SSE 4.0 mph /  6.4 km/h 13.0 mph /  20.9 km/h 35 % 0.00 in /  0 mm
17:38 48.4 °F /  9.1 °C 22.0 °F /  -5.6 °C 30.26 in /  1024.6 hPa SE 1.0 mph /  1.6 km/h 13.0 mph /  20.9 km/h 35 % 0.00 in /  0 mm
17:40 48.6 °F /  9.2 °C 22.2 °F /  -5.4 °C 30.26 in /  1024.6 hPa SSE 4.0 mph /  6.4 km/h 13.0 mph /  20.9 km/h 35 % 0.00 in /  0 mm
17:45 48.6 °F /  9.2 °C 22.2 °F /  -5.4 °C 30.26 in /  1024.6 hPa SSE 4.0 mph /  6.4 km/h 13.0 mph /  20.9 km/h 35 % 0.00 in /  0 mm
17:50 48.2 °F /  9 °C 21.9 °F /  -5.6 °C 30.26 in /  1024.6 hPa SSE 4.0 mph /  6.4 km/h 15.0 mph /  24.1 km/h 35 % 0.00 in /  0 mm
17:53 48.0 °F /  8.9 °C 21.0 °F /  -6.1 °C 30.26 in /  1024.6 hPa SE 3.0 mph /  4.8 km/h 12.0 mph /  19.3 km/h 35 % 0.00 in /  0 mm
17:55 48.2 °F /  9 °C 21.9 °F /  -5.6 °C 30.26 in /  1024.6 hPa SSE 4.0 mph /  6.4 km/h 15.0 mph /  24.1 km/h 35 % 0.00 in /  0 mm
18:00 48.2 °F /  9 °C 21.9 °F /  -5.6 °C 30.26 in /  1024.6 hPa SSE 4.0 mph /  6.4 km/h 15.0 mph /  24.1 km/h 35 % 0.00 in /  0 mm
18:05 47.7 °F /  8.7 °C 22.1 °F /  -5.5 °C 30.26 in /  1024.6 hPa SSE 4.0 mph /  6.4 km/h 13.0 mph /  20.9 km/h 36 % 0.00 in /  0 mm
18:08 47.4 °F /  8.6 °C 21.0 °F /  -6.1 °C 30.26 in /  1024.6 hPa SE 2.0 mph /  3.2 km/h 8.0 mph /  12.9 km/h 36 % 0.00 in /  0 mm
18:10 47.7 °F /  8.7 °C 22.1 °F /  -5.5 °C 30.26 in /  1024.6 hPa SSE 4.0 mph /  6.4 km/h 13.0 mph /  20.9 km/h 36 % 0.00 in /  0 mm
18:15 47.7 °F /  8.7 °C 22.1 °F /  -5.5 °C 30.26 in /  1024.6 hPa SSE 4.0 mph /  6.4 km/h 13.0 mph /  20.9 km/h 36 % 0.00 in /  0 mm
18:20 47.1 °F /  8.4 °C 21.5 °F /  -5.8 °C 30.26 in /  1024.6 hPa SE 3.0 mph /  4.8 km/h 10.0 mph /  16.1 km/h 36 % 0.00 in /  0 mm
18:23 46.7 °F /  8.2 °C 21.0 °F /  -6.1 °C 30.27 in /  1024.9 hPa SE 3.0 mph /  4.8 km/h 9.0 mph /  14.5 km/h 36 % 0.00 in /  0 mm
18:25 47.1 °F /  8.4 °C 21.5 °F /  -5.8 °C 30.26 in /  1024.6 hPa SE 3.0 mph /  4.8 km/h 10.0 mph /  16.1 km/h 36 % 0.00 in /  0 mm
18:30 47.1 °F /  8.4 °C 21.5 °F /  -5.8 °C 30.26 in /  1024.6 hPa SE 3.0 mph /  4.8 km/h 10.0 mph /  16.1 km/h 36 % 0.00 in /  0 mm
18:35 46.6 °F /  8.1 °C 21.7 °F /  -5.7 °C 30.27 in /  1024.9 hPa SSE 3.0 mph /  4.8 km/h 11.0 mph /  17.7 km/h 37 % 0.00 in /  0 mm
18:38 46.2 °F /  7.9 °C 21.0 °F /  -6.1 °C 30.27 in /  1024.9 hPa SE 1.0 mph /  1.6 km/h 4.0 mph /  6.4 km/h 37 % 0.00 in /  0 mm
18:40 46.6 °F /  8.1 °C 21.7 °F /  -5.7 °C 30.27 in /  1024.9 hPa SSE 3.0 mph /  4.8 km/h 11.0 mph /  17.7 km/h 37 % 0.00 in /  0 mm
18:45 46.6 °F /  8.1 °C 21.7 °F /  -5.7 °C 30.27 in /  1024.9 hPa SSE 3.0 mph /  4.8 km/h 11.0 mph /  17.7 km/h 37 % 0.00 in /  0 mm
18:50 46.0 °F /  7.8 °C 21.8 °F /  -5.7 °C 30.28 in /  1025.3 hPa SSE 2.0 mph /  3.2 km/h 9.0 mph /  14.5 km/h 38 % 0.00 in /  0 mm
18:53 45.7 °F /  7.6 °C 21.0 °F /  -6.1 °C 30.28 in /  1025.3 hPa SSE 1.0 mph /  1.6 km/h 7.0 mph /  11.3 km/h 38 % 0.00 in /  0 mm
18:55 46.0 °F /  7.8 °C 21.8 °F /  -5.7 °C 30.28 in /  1025.3 hPa SSE 2.0 mph /  3.2 km/h 9.0 mph /  14.5 km/h 38 % 0.00 in /  0 mm
19:00 46.0 °F /  7.8 °C 21.8 °F /  -5.7 °C 30.28 in /  1025.3 hPa SSE 2.0 mph /  3.2 km/h 9.0 mph /  14.5 km/h 38 % 0.00 in /  0 mm
19:05 45.4 °F /  7.4 °C 21.9 °F /  -5.6 °C 30.28 in /  1025.3 hPa SSE 1.0 mph /  1.6 km/h 7.0 mph /  11.3 km/h 39 % 0.00 in /  0 mm
19:08 45.1 °F /  7.3 °C 22.0 °F /  -5.6 °C 30.28 in /  1025.3 hPa Calm   7.0 mph /  11.3 km/h 40 % 0.00 in /  0 mm
19:10 45.4 °F /  7.4 °C 21.9 °F /  -5.6 °C 30.28 in /  1025.3 hPa SSE 1.0 mph /  1.6 km/h 7.0 mph /  11.3 km/h 39 % 0.00 in /  0 mm
19:15 45.4 °F /  7.4 °C 21.9 °F /  -5.6 °C 30.28 in /  1025.3 hPa SSE 1.0 mph /  1.6 km/h 7.0 mph /  11.3 km/h 39 % 0.00 in /  0 mm
19:20 44.9 °F /  7.2 °C 22.6 °F /  -5.2 °C 30.28 in /  1025.3 hPa SSE 2.0 mph /  3.2 km/h 7.0 mph /  11.3 km/h 41 % 0.00 in /  0 mm
19:23 44.6 °F /  7 °C 22.0 °F /  -5.6 °C 30.28 in /  1025.3 hPa SSE 6.0 mph /  9.7 km/h 6.0 mph /  9.7 km/h 41 % 0.00 in /  0 mm
19:25 44.9 °F /  7.2 °C 22.6 °F /  -5.2 °C 30.28 in /  1025.3 hPa SSE 2.0 mph /  3.2 km/h 7.0 mph /  11.3 km/h 41 % 0.00 in /  0 mm
19:30 44.9 °F /  7.2 °C 22.6 °F /  -5.2 °C 30.28 in /  1025.3 hPa SSE 2.0 mph /  3.2 km/h 7.0 mph /  11.3 km/h 41 % 0.00 in /  0 mm
19:35 44.3 °F /  6.8 °C 22.7 °F /  -5.2 °C 30.28 in /  1025.3 hPa SSE 1.0 mph /  1.6 km/h 6.0 mph /  9.7 km/h 42 % 0.00 in /  0 mm
19:38 44.0 °F /  6.7 °C 23.0 °F /  -5 °C 30.28 in /  1025.3 hPa SSE 1.0 mph /  1.6 km/h 6.0 mph /  9.7 km/h 43 % 0.00 in /  0 mm
19:40 44.3 °F /  6.8 °C 22.7 °F /  -5.2 °C 30.28 in /  1025.3 hPa SSE 1.0 mph /  1.6 km/h 6.0 mph /  9.7 km/h 42 % 0.00 in /  0 mm
19:45 44.3 °F /  6.8 °C 22.7 °F /  -5.2 °C 30.28 in /  1025.3 hPa SSE 1.0 mph /  1.6 km/h 6.0 mph /  9.7 km/h 42 % 0.00 in /  0 mm
19:50 43.7 °F /  6.5 °C 23.2 °F /  -4.9 °C 30.28 in /  1025.3 hPa SSE 2.0 mph /  3.2 km/h 8.0 mph /  12.9 km/h 44 % 0.00 in /  0 mm
19:53 43.4 °F /  6.3 °C 23.0 °F /  -5 °C 30.28 in /  1025.3 hPa Calm   4.0 mph /  6.4 km/h 45 % 0.00 in /  0 mm
19:55 43.7 °F /  6.5 °C 23.2 °F /  -4.9 °C 30.28 in /  1025.3 hPa SSE 2.0 mph /  3.2 km/h 8.0 mph /  12.9 km/h 44 % 0.00 in /  0 mm
20:00 43.7 °F /  6.5 °C 23.2 °F /  -4.9 °C 30.28 in /  1025.3 hPa SSE 2.0 mph /  3.2 km/h 8.0 mph /  12.9 km/h 44 % 0.00 in /  0 mm
20:05 43.2 °F /  6.2 °C 23.3 °F /  -4.8 °C 30.28 in /  1025.3 hPa East 1.0 mph /  1.6 km/h 4.0 mph /  6.4 km/h 45 % 0.00 in /  0 mm
20:08 42.9 °F /  6.1 °C 23.0 °F /  -5 °C 30.28 in /  1025.3 hPa ESE 2.0 mph /  3.2 km/h 3.0 mph /  4.8 km/h 45 % 0.00 in /  0 mm
20:10 43.2 °F /  6.2 °C 23.3 °F /  -4.8 °C 30.28 in /  1025.3 hPa East 1.0 mph /  1.6 km/h 4.0 mph /  6.4 km/h 45 % 0.00 in /  0 mm
20:15 43.2 °F /  6.2 °C 23.3 °F /  -4.8 °C 30.28 in /  1025.3 hPa East 1.0 mph /  1.6 km/h 4.0 mph /  6.4 km/h 45 % 0.00 in /  0 mm
20:20 42.7 °F /  5.9 °C 23.9 °F /  -4.5 °C 30.28 in /  1025.3 hPa ESE 1.0 mph /  1.6 km/h 7.0 mph /  11.3 km/h 47 % 0.00 in /  0 mm
20:23 42.3 °F /  5.7 °C 24.0 °F /  -4.4 °C 30.28 in /  1025.3 hPa SSE 2.0 mph /  3.2 km/h 7.0 mph /  11.3 km/h 48 % 0.00 in /  0 mm
20:25 42.7 °F /  5.9 °C 23.9 °F /  -4.5 °C 30.28 in /  1025.3 hPa ESE 1.0 mph /  1.6 km/h 7.0 mph /  11.3 km/h 47 % 0.00 in /  0 mm
20:30 42.7 °F /  5.9 °C 23.9 °F /  -4.5 °C 30.28 in /  1025.3 hPa ESE 1.0 mph /  1.6 km/h 7.0 mph /  11.3 km/h 47 % 0.00 in /  0 mm
20:35 42.2 °F /  5.7 °C 23.9 °F /  -4.5 °C 30.29 in /  1025.6 hPa SSE 2.0 mph /  3.2 km/h 7.0 mph /  11.3 km/h 48 % 0.00 in /  0 mm
20:38 42.0 °F /  5.6 °C 24.0 °F /  -4.4 °C 30.29 in /  1025.6 hPa SE 4.0 mph /  6.4 km/h 8.0 mph /  12.9 km/h 49 % 0.00 in /  0 mm
20:40 42.2 °F /  5.7 °C 23.9 °F /  -4.5 °C 30.29 in /  1025.6 hPa SSE 2.0 mph /  3.2 km/h 7.0 mph /  11.3 km/h 48 % 0.00 in /  0 mm
20:45 42.2 °F /  5.7 °C 23.9 °F /  -4.5 °C 30.29 in /  1025.6 hPa SSE 2.0 mph /  3.2 km/h 7.0 mph /  11.3 km/h 48 % 0.00 in /  0 mm
20:50 41.9 °F /  5.5 °C 24.1 °F /  -4.4 °C 30.29 in /  1025.6 hPa SE 2.0 mph /  3.2 km/h 9.0 mph /  14.5 km/h 49 % 0.00 in /  0 mm
20:53 41.7 °F /  5.4 °C 24.0 °F /  -4.4 °C 30.30 in /  1026 hPa Calm   3.0 mph /  4.8 km/h 50 % 0.00 in /  0 mm
20:55 41.9 °F /  5.5 °C 24.1 °F /  -4.4 °C 30.29 in /  1025.6 hPa SE 2.0 mph /  3.2 km/h 9.0 mph /  14.5 km/h 49 % 0.00 in /  0 mm
21:00 41.9 °F /  5.5 °C 24.1 °F /  -4.4 °C 30.29 in /  1025.6 hPa SE 2.0 mph /  3.2 km/h 9.0 mph /  14.5 km/h 49 % 0.00 in /  0 mm
21:05 41.5 °F /  5.3 °C 24.3 °F /  -4.3 °C 30.29 in /  1025.6 hPa SSE 1.0 mph /  1.6 km/h 5.0 mph /  8 km/h 50 % 0.00 in /  0 mm
21:08 41.5 °F /  5.3 °C 24.0 °F /  -4.4 °C 30.29 in /  1025.6 hPa SE 2.0 mph /  3.2 km/h 4.0 mph /  6.4 km/h 50 % 0.00 in /  0 mm
21:10 41.5 °F /  5.3 °C 24.3 °F /  -4.3 °C 30.29 in /  1025.6 hPa SSE 1.0 mph /  1.6 km/h 5.0 mph /  8 km/h 50 % 0.00 in /  0 mm
21:15 41.5 °F /  5.3 °C 24.3 °F /  -4.3 °C 30.29 in /  1025.6 hPa SSE 1.0 mph /  1.6 km/h 5.0 mph /  8 km/h 50 % 0.00 in /  0 mm
21:20 41.4 °F /  5.2 °C 24.2 °F /  -4.3 °C 30.29 in /  1025.6 hPa SE 1.0 mph /  1.6 km/h 4.0 mph /  6.4 km/h 50 % 0.00 in /  0 mm
21:23 41.2 °F /  5.1 °C 24.0 °F /  -4.4 °C 30.29 in /  1025.6 hPa SE 3.0 mph /  4.8 km/h 9.0 mph /  14.5 km/h 50 % 0.00 in /  0 mm
21:25 41.4 °F /  5.2 °C 24.2 °F /  -4.3 °C 30.29 in /  1025.6 hPa SE 1.0 mph /  1.6 km/h 4.0 mph /  6.4 km/h 50 % 0.00 in /  0 mm
21:30 41.4 °F /  5.2 °C 24.2 °F /  -4.3 °C 30.29 in /  1025.6 hPa SE 1.0 mph /  1.6 km/h 4.0 mph /  6.4 km/h 50 % 0.00 in /  0 mm
21:35 41.1 °F /  5.1 °C 23.9 °F /  -4.5 °C 30.29 in /  1025.6 hPa ESE 2.0 mph /  3.2 km/h 9.0 mph /  14.5 km/h 50 % 0.00 in /  0 mm
21:38 40.9 °F /  4.9 °C 24.0 °F /  -4.4 °C 30.29 in /  1025.6 hPa Calm   4.0 mph /  6.4 km/h 51 % 0.00 in /  0 mm
21:40 41.1 °F /  5.1 °C 23.9 °F /  -4.5 °C 30.29 in /  1025.6 hPa ESE 2.0 mph /  3.2 km/h 9.0 mph /  14.5 km/h 50 % 0.00 in /  0 mm
21:45 41.1 °F /  5.1 °C 23.9 °F /  -4.5 °C 30.29 in /  1025.6 hPa ESE 2.0 mph /  3.2 km/h 9.0 mph /  14.5 km/h 50 % 0.00 in /  0 mm
21:50 40.8 °F /  4.9 °C 24.1 °F /  -4.4 °C 30.30 in /  1026 hPa SE 1.0 mph /  1.6 km/h 6.0 mph /  9.7 km/h 51 % 0.00 in /  0 mm
21:53 40.6 °F /  4.8 °C 24.0 °F /  -4.4 °C 30.30 in /  1026 hPa SE 4.0 mph /  6.4 km/h 7.0 mph /  11.3 km/h 51 % 0.00 in /  0 mm
21:55 40.8 °F /  4.9 °C 24.1 °F /  -4.4 °C 30.30 in /  1026 hPa SE 1.0 mph /  1.6 km/h 6.0 mph /  9.7 km/h 51 % 0.00 in /  0 mm
22:00 40.8 °F /  4.9 °C 24.1 °F /  -4.4 °C 30.30 in /  1026 hPa SE 1.0 mph /  1.6 km/h 6.0 mph /  9.7 km/h 51 % 0.00 in /  0 mm
22:05 40.6 °F /  4.8 °C 23.9 °F /  -4.5 °C 30.30 in /  1026 hPa SE 2.0 mph /  3.2 km/h 8.0 mph /  12.9 km/h 51 % 0.00 in /  0 mm
22:08 40.4 °F /  4.7 °C 24.0 °F /  -4.4 °C 30.30 in /  1026 hPa SE 1.0 mph /  1.6 km/h 4.0 mph /  6.4 km/h 52 % 0.00 in /  0 mm
22:10 40.6 °F /  4.8 °C 23.9 °F /  -4.5 °C 30.30 in /  1026 hPa SE 2.0 mph /  3.2 km/h 8.0 mph /  12.9 km/h 51 % 0.00 in /  0 mm
22:15 40.6 °F /  4.8 °C 23.9 °F /  -4.5 °C 30.30 in /  1026 hPa SE 2.0 mph /  3.2 km/h 8.0 mph /  12.9 km/h 51 % 0.00 in /  0 mm
22:20 40.2 °F /  4.6 °C 24.5 °F /  -4.2 °C 30.30 in /  1026 hPa SE 1.0 mph /  1.6 km/h 5.0 mph /  8 km/h 53 % 0.00 in /  0 mm
22:23 39.9 °F /  4.4 °C 24.0 °F /  -4.4 °C 30.30 in /  1026 hPa SSE 2.0 mph /  3.2 km/h 7.0 mph /  11.3 km/h 54 % 0.00 in /  0 mm
22:25 40.2 °F /  4.6 °C 24.5 °F /  -4.2 °C 30.30 in /  1026 hPa SE 1.0 mph /  1.6 km/h 5.0 mph /  8 km/h 53 % 0.00 in /  0 mm
22:30 40.2 °F /  4.6 °C 24.5 °F /  -4.2 °C 30.30 in /  1026 hPa SE 1.0 mph /  1.6 km/h 5.0 mph /  8 km/h 53 % 0.00 in /  0 mm
22:35 39.7 °F /  4.3 °C 24.9 °F /  -3.9 °C 30.29 in /  1025.6 hPa SSE 2.0 mph /  3.2 km/h 7.0 mph /  11.3 km/h 55 % 0.00 in /  0 mm
22:38 39.5 °F /  4.2 °C 25.0 °F /  -3.9 °C 30.29 in /  1025.6 hPa SE 2.0 mph /  3.2 km/h 5.0 mph /  8 km/h 56 % 0.00 in /  0 mm
22:40 39.7 °F /  4.3 °C 24.9 °F /  -3.9 °C 30.29 in /  1025.6 hPa SSE 2.0 mph /  3.2 km/h 7.0 mph /  11.3 km/h 55 % 0.00 in /  0 mm
22:45 39.7 °F /  4.3 °C 24.9 °F /  -3.9 °C 30.29 in /  1025.6 hPa SSE 2.0 mph /  3.2 km/h 7.0 mph /  11.3 km/h 55 % 0.00 in /  0 mm
22:50 39.3 °F /  4.1 °C 25.4 °F /  -3.7 °C 30.30 in /  1026 hPa SE 2.0 mph /  3.2 km/h 5.0 mph /  8 km/h 57 % 0.00 in /  0 mm
22:53 39.1 °F /  3.9 °C 25.0 °F /  -3.9 °C 30.29 in /  1025.6 hPa SSE 2.0 mph /  3.2 km/h 8.0 mph /  12.9 km/h 58 % 0.00 in /  0 mm
22:55 39.3 °F /  4.1 °C 25.4 °F /  -3.7 °C 30.30 in /  1026 hPa SE 2.0 mph /  3.2 km/h 5.0 mph /  8 km/h 57 % 0.00 in /  0 mm
23:00 39.3 °F /  4.1 °C 25.4 °F /  -3.7 °C 30.30 in /  1026 hPa SE 2.0 mph /  3.2 km/h 5.0 mph /  8 km/h 57 % 0.00 in /  0 mm
23:05 38.9 °F /  3.8 °C 25.8 °F /  -3.4 °C 30.29 in /  1025.6 hPa SSE 2.0 mph /  3.2 km/h 8.0 mph /  12.9 km/h 59 % 0.00 in /  0 mm
23:08 38.7 °F /  3.7 °C 26.0 °F /  -3.3 °C 30.30 in /  1026 hPa SSE 2.0 mph /  3.2 km/h 9.0 mph /  14.5 km/h 60 % 0.00 in /  0 mm
23:10 38.9 °F /  3.8 °C 25.8 °F /  -3.4 °C 30.29 in /  1025.6 hPa SSE 2.0 mph /  3.2 km/h 8.0 mph /  12.9 km/h 59 % 0.00 in /  0 mm
23:15 38.9 °F /  3.8 °C 25.8 °F /  -3.4 °C 30.29 in /  1025.6 hPa SSE 2.0 mph /  3.2 km/h 8.0 mph /  12.9 km/h 59 % 0.00 in /  0 mm
23:20 38.6 °F /  3.7 °C 25.9 °F /  -3.4 °C 30.30 in /  1026 hPa SSE 2.0 mph /  3.2 km/h 9.0 mph /  14.5 km/h 60 % 0.00 in /  0 mm
23:23 38.4 °F /  3.6 °C 26.0 °F /  -3.3 °C 30.29 in /  1025.6 hPa ESE 4.0 mph /  6.4 km/h 7.0 mph /  11.3 km/h 61 % 0.00 in /  0 mm
23:25 38.6 °F /  3.7 °C 25.9 °F /  -3.4 °C 30.30 in /  1026 hPa SSE 2.0 mph /  3.2 km/h 9.0 mph /  14.5 km/h 60 % 0.00 in /  0 mm
23:30 38.6 °F /  3.7 °C 25.9 °F /  -3.4 °C 30.30 in /  1026 hPa SSE 2.0 mph /  3.2 km/h 9.0 mph /  14.5 km/h 60 % 0.00 in /  0 mm
23:35 38.3 °F /  3.5 °C 26.0 °F /  -3.3 °C 30.29 in /  1025.6 hPa SE 3.0 mph /  4.8 km/h 7.0 mph /  11.3 km/h 61 % 0.00 in /  0 mm
23:38 38.1 °F /  3.4 °C 26.0 °F /  -3.3 °C 30.29 in /  1025.6 hPa SE 3.0 mph /  4.8 km/h 7.0 mph /  11.3 km/h 62 % 0.00 in /  0 mm
23:40 38.3 °F /  3.5 °C 26.0 °F /  -3.3 °C 30.29 in /  1025.6 hPa SE 3.0 mph /  4.8 km/h 7.0 mph /  11.3 km/h 61 % 0.00 in /  0 mm
23:45 38.3 °F /  3.5 °C 26.0 °F /  -3.3 °C 30.29 in /  1025.6 hPa SE 3.0 mph /  4.8 km/h 7.0 mph /  11.3 km/h 61 % 0.00 in /  0 mm
23:50 37.9 °F /  3.3 °C 26.4 °F /  -3.1 °C 30.29 in /  1025.6 hPa SSE 3.0 mph /  4.8 km/h 9.0 mph /  14.5 km/h 63 % 0.00 in /  0 mm
23:53 37.8 °F /  3.2 °C 26.0 °F /  -3.3 °C 30.28 in /  1025.3 hPa SE 4.0 mph /  6.4 km/h 8.0 mph /  12.9 km/h 63 % 0.00 in /  0 mm
23:55 37.9 °F /  3.3 °C 26.4 °F /  -3.1 °C 30.29 in /  1025.6 hPa SSE 3.0 mph /  4.8 km/h 9.0 mph /  14.5 km/h 63 % 0.00 in /  0 mm
Des Moines Weather and Climate
Compliments of Weather Underground - 4.75 mb

Script developed by  Jim McMurry - jmcmurry@mwt.net Adapted for the template by  Wim van der Kuil - Leuven-Template.eu

You find our weather info also at:

Weather Underground

Equipment we use:

Weather-station
Davis VP2 Plus

Weather-program
Davis Weatherlink.Com

Weather-server
iMac (Retina 4K, 21.5-inch, Late 2015)

Provider
Hostmonster.com

Davis VP2 Plus

Davis Weatherlink.Com

iMac (Retina 4K, 21.5-inch, Late 2015)

Hostmonster.com